createdAt,value
2022-08-26T02:30:22.748Z,1015.78
2022-08-26T02:31:22.808Z,1015.76
2022-08-26T02:32:22.740Z,1015.77
2022-08-26T02:33:22.737Z,1015.78
2022-08-26T02:34:22.734Z,1015.77
2022-08-26T02:35:22.740Z,1015.77
2022-08-26T02:36:22.736Z,1015.76
2022-08-26T02:37:23.032Z,1015.8
2022-08-26T02:38:22.730Z,1015.81
2022-08-26T02:39:22.712Z,1015.8
2022-08-26T02:40:22.764Z,1015.85
2022-08-26T02:41:23.061Z,1015.81
2022-08-26T02:42:22.708Z,1015.81
2022-08-26T02:43:31.396Z,1015.77
2022-08-26T02:44:22.711Z,1015.77
2022-08-26T02:47:24.860Z,1015.79
2022-08-26T02:48:22.726Z,1015.73
2022-08-26T02:49:22.716Z,1015.77
2022-08-26T02:50:22.742Z,1015.78
2022-08-26T02:51:22.731Z,1015.7
2022-08-26T02:52:22.749Z,1015.73
2022-08-26T02:53:25.399Z,1015.69
2022-08-26T02:54:22.733Z,1015.7
2022-08-26T02:55:24.820Z,1015.7
2022-08-26T02:56:22.733Z,1015.68
2022-08-26T02:57:22.745Z,1015.68
2022-08-26T02:58:22.743Z,1015.71
2022-08-26T02:59:24.507Z,1015.69
2022-08-26T03:00:22.756Z,1015.67
2022-08-26T03:01:22.784Z,1015.69
2022-08-26T03:02:22.881Z,1015.64
2022-08-26T03:03:23.657Z,1015.66
2022-08-26T03:04:22.736Z,1015.67
2022-08-26T03:05:24.060Z,1015.67
2022-08-26T03:06:22.744Z,1015.66
2022-08-26T03:07:22.746Z,1015.67
2022-08-26T03:08:22.751Z,1015.67
2022-08-26T03:09:22.731Z,1015.64
2022-08-26T03:10:22.738Z,1015.66
2022-08-26T03:11:22.739Z,1015.63
2022-08-26T03:12:22.749Z,1015.63
2022-08-26T03:13:22.740Z,1015.6
2022-08-26T03:14:22.730Z,1015.61
2022-08-26T03:15:22.739Z,1015.6
2022-08-26T03:16:22.792Z,1015.57
2022-08-26T03:17:22.750Z,1015.55
2022-08-26T03:18:22.729Z,1015.56
2022-08-26T03:19:22.727Z,1015.56
2022-08-26T03:20:22.711Z,1015.51
2022-08-26T03:21:22.741Z,1015.5
2022-08-26T03:22:22.740Z,1015.54
2022-08-26T03:23:22.753Z,1015.55
2022-08-26T03:24:22.737Z,1015.54
2022-08-26T03:25:22.725Z,1015.51
2022-08-26T03:26:22.730Z,1015.52
2022-08-26T03:27:22.743Z,1015.49
2022-08-26T03:28:22.731Z,1015.48
2022-08-26T03:29:22.739Z,1015.5
2022-08-26T03:30:22.711Z,1015.48
2022-08-26T03:31:24.623Z,1015.46
2022-08-26T03:32:22.752Z,1015.46
2022-08-26T03:33:22.729Z,1015.47
2022-08-26T03:34:22.731Z,1015.48
2022-08-26T03:35:22.710Z,1015.44
2022-08-26T03:36:22.731Z,1015.46
2022-08-26T03:37:22.747Z,1015.47
2022-08-26T03:38:22.747Z,1015.43
2022-08-26T03:39:22.738Z,1015.43
2022-08-26T03:40:22.813Z,1015.43
2022-08-26T03:41:22.726Z,1015.41
2022-08-26T03:42:22.743Z,1015.44
2022-08-26T03:43:22.741Z,1015.46
2022-08-26T03:44:22.717Z,1015.44
2022-08-26T03:45:22.726Z,1015.42
2022-08-26T03:46:22.774Z,1015.43
2022-08-26T03:47:22.735Z,1015.41
2022-08-26T03:48:22.711Z,1015.4
2022-08-26T03:49:22.716Z,1015.41
2022-08-26T03:50:24.261Z,1015.38
2022-08-26T03:51:22.710Z,1015.4
2022-08-26T03:52:22.730Z,1015.42
2022-08-26T03:53:22.746Z,1015.46
2022-08-26T03:54:22.718Z,1015.47
2022-08-26T03:55:23.787Z,1015.44
2022-08-26T03:56:22.714Z,1015.45
2022-08-26T03:57:22.725Z,1015.47
2022-08-26T03:58:22.737Z,1015.42
2022-08-26T03:59:22.729Z,1015.45
2022-08-26T04:00:22.711Z,1015.44
2022-08-26T04:01:22.777Z,1015.42
2022-08-26T04:02:22.994Z,1015.44
2022-08-26T04:03:22.809Z,1015.44
2022-08-26T04:04:24.509Z,1015.42
2022-08-26T04:05:22.844Z,1015.44
2022-08-26T04:06:22.730Z,1015.41
2022-08-26T04:07:22.745Z,1015.47
2022-08-26T04:08:22.739Z,1015.47
2022-08-26T04:09:22.727Z,1015.46
2022-08-26T04:10:22.716Z,1015.44
2022-08-26T04:11:22.738Z,1015.45
2022-08-26T04:12:22.739Z,1015.45
2022-08-26T04:13:22.725Z,1015.45
2022-08-26T04:14:22.721Z,1015.44
2022-08-26T04:15:22.720Z,1015.43
2022-08-26T04:16:22.820Z,1015.43
2022-08-26T04:17:24.937Z,1015.45
2022-08-26T04:18:22.731Z,1015.46
2022-08-26T04:19:22.716Z,1015.44
2022-08-26T04:20:22.716Z,1015.44
2022-08-26T04:21:22.739Z,1015.46
2022-08-26T04:22:24.045Z,1015.44
2022-08-26T04:23:22.753Z,1015.45
2022-08-26T04:24:22.730Z,1015.48
2022-08-26T04:25:22.739Z,1015.48
2022-08-26T04:26:22.725Z,1015.45
2022-08-26T04:27:22.737Z,1015.48
2022-08-26T04:28:22.732Z,1015.52
2022-08-26T04:29:22.734Z,1015.53
2022-08-26T04:30:22.717Z,1015.54
2022-08-26T04:31:22.827Z,1015.55
2022-08-26T04:32:22.746Z,1015.54
2022-08-26T04:33:32.531Z,1015.56
2022-08-26T04:34:22.736Z,1015.56
2022-08-26T04:35:25.666Z,1015.6
2022-08-26T04:36:22.733Z,1015.57
2022-08-26T04:37:22.748Z,1015.56
2022-08-26T04:38:22.744Z,1015.6
2022-08-26T04:39:22.735Z,1015.54
2022-08-26T04:40:22.743Z,1015.54
2022-08-26T04:41:22.731Z,1015.56
2022-08-26T04:42:22.862Z,1015.54
2022-08-26T04:43:22.728Z,1015.56
2022-08-26T04:44:22.726Z,1015.54
2022-08-26T04:45:23.058Z,1015.53
2022-08-26T04:46:22.860Z,1015.54
2022-08-26T04:47:22.750Z,1015.55
2022-08-26T04:48:22.741Z,1015.52
2022-08-26T04:49:22.733Z,1015.57
2022-08-26T04:50:22.714Z,1015.59
2022-08-26T04:51:22.733Z,1015.6
2022-08-26T04:52:22.777Z,1015.57
2022-08-26T04:53:22.758Z,1015.57
2022-08-26T04:54:22.735Z,1015.55
2022-08-26T04:55:37.300Z,1015.6
2022-08-26T04:56:22.715Z,1015.64
2022-08-26T04:57:22.732Z,1015.59
2022-08-26T04:58:22.715Z,1015.55
2022-08-26T04:59:22.714Z,1015.53
2022-08-26T05:00:22.721Z,1015.55
2022-08-26T05:01:22.738Z,1015.59
2022-08-26T05:02:22.738Z,1015.57
2022-08-26T05:03:22.714Z,1015.57
2022-08-26T05:04:22.731Z,1015.52
2022-08-26T05:05:22.713Z,1015.56
2022-08-26T05:06:22.715Z,1015.59
2022-08-26T05:07:22.727Z,1015.6
2022-08-26T05:08:22.725Z,1015.6
2022-08-26T05:09:22.731Z,1015.57
2022-08-26T05:10:22.715Z,1015.54
2022-08-26T05:11:22.725Z,1015.51
2022-08-26T05:12:22.753Z,1015.53
2022-08-26T05:13:22.726Z,1015.49
2022-08-26T05:14:22.723Z,1015.53
2022-08-26T05:15:22.715Z,1015.51
2022-08-26T05:16:22.849Z,1015.53
2022-08-26T05:17:22.746Z,1015.52
2022-08-26T05:18:22.935Z,1015.55
2022-08-26T05:19:22.736Z,1015.52
2022-08-26T05:20:26.071Z,1015.51
2022-08-26T05:21:22.726Z,1015.55
2022-08-26T05:22:22.745Z,1015.53
2022-08-26T05:23:22.895Z,1015.49
2022-08-26T05:24:22.737Z,1015.5
2022-08-26T05:25:22.733Z,1015.51
2022-08-26T05:26:22.927Z,1015.5
2022-08-26T05:27:22.746Z,1015.51
2022-08-26T05:28:22.734Z,1015.48
2022-08-26T05:29:22.721Z,1015.49
2022-08-26T05:30:22.718Z,1015.45
2022-08-26T05:31:22.825Z,1015.45
2022-08-26T05:32:22.747Z,1015.46
2022-08-26T05:33:22.731Z,1015.48
2022-08-26T05:34:22.733Z,1015.47
2022-08-26T05:35:22.736Z,1015.49
2022-08-26T05:36:22.743Z,1015.5
2022-08-26T05:37:22.734Z,1015.49
2022-08-26T05:38:22.745Z,1015.51
2022-08-26T05:39:22.735Z,1015.47
2022-08-26T05:40:22.822Z,1015.44
2022-08-26T05:41:22.728Z,1015.48
2022-08-26T05:42:22.749Z,1015.45
2022-08-26T05:43:22.736Z,1015.46
2022-08-26T05:44:22.732Z,1015.48
2022-08-26T05:45:22.733Z,1015.41
2022-08-26T05:46:22.805Z,1015.45
2022-08-26T05:47:22.740Z,1015.43
2022-08-26T05:48:24.402Z,1015.45
2022-08-26T05:49:26.198Z,1015.42
2022-08-26T05:50:22.889Z,1015.4
2022-08-26T05:51:25.857Z,1015.4
2022-08-26T05:52:25.893Z,1015.4
2022-08-26T05:53:22.740Z,1015.39
2022-08-26T05:54:22.729Z,1015.41
2022-08-26T05:55:22.745Z,1015.43
2022-08-26T05:56:22.740Z,1015.44
2022-08-26T05:57:23.132Z,1015.41
2022-08-26T05:58:22.731Z,1015.42
2022-08-26T05:59:24.559Z,1015.45
2022-08-26T06:00:22.714Z,1015.41
2022-08-26T06:01:24.178Z,1015.42
2022-08-26T06:02:22.816Z,1015.4
2022-08-26T06:03:22.725Z,1015.42
2022-08-26T06:04:22.729Z,1015.41
2022-08-26T06:05:22.730Z,1015.43
2022-08-26T06:06:27.307Z,1015.37
2022-08-26T06:07:22.730Z,1015.4
2022-08-26T06:08:22.737Z,1015.4
2022-08-26T06:09:22.722Z,1015.41
2022-08-26T06:10:32.140Z,1015.44
2022-08-26T06:11:22.709Z,1015.44
2022-08-26T06:12:22.726Z,1015.44
2022-08-26T06:13:22.796Z,1015.44
2022-08-26T06:14:22.709Z,1015.42
2022-08-26T06:15:22.717Z,1015.38
2022-08-26T06:16:22.788Z,1015.38
2022-08-26T06:17:22.716Z,1015.39
2022-08-26T06:18:22.713Z,1015.31
2022-08-26T06:19:22.709Z,1015.38
2022-08-26T06:20:22.717Z,1015.37
2022-08-26T06:21:22.727Z,1015.38
2022-08-26T06:22:23.744Z,1015.36
2022-08-26T06:23:22.742Z,1015.36
2022-08-26T06:24:27.442Z,1015.39
2022-08-26T06:25:22.723Z,1015.35
2022-08-26T06:26:22.727Z,1015.36
2022-08-26T06:27:22.747Z,1015.32
2022-08-26T06:28:22.721Z,1015.27
2022-08-26T06:29:24.023Z,1015.27
2022-08-26T06:30:22.717Z,1015.25
2022-08-26T06:31:22.801Z,1015.25
2022-08-26T06:32:22.742Z,1015.25
2022-08-26T06:33:22.728Z,1015.28
2022-08-26T06:34:22.732Z,1015.27
2022-08-26T06:35:22.734Z,1015.25
2022-08-26T06:36:22.737Z,1015.27
2022-08-26T06:37:22.751Z,1015.29
2022-08-26T06:38:22.727Z,1015.29
2022-08-26T06:39:22.746Z,1015.31
2022-08-26T06:40:22.782Z,1015.27
2022-08-26T06:41:22.731Z,1015.31
2022-08-26T06:42:22.742Z,1015.3
2022-08-26T06:43:22.732Z,1015.31
2022-08-26T06:44:22.732Z,1015.25
2022-08-26T06:45:22.737Z,1015.27
2022-08-26T06:46:22.805Z,1015.25
2022-08-26T06:47:22.743Z,1015.25
2022-08-26T06:48:22.734Z,1015.25
2022-08-26T06:49:25.838Z,1015.23
2022-08-26T06:50:22.737Z,1015.25
2022-08-26T06:51:23.652Z,1015.26
2022-08-26T06:52:24.593Z,1015.24
2022-08-26T06:53:22.778Z,1015.25
2022-08-26T06:54:22.735Z,1015.3
2022-08-26T06:55:22.718Z,1015.25
2022-08-26T06:56:22.739Z,1015.23
2022-08-26T06:57:22.749Z,1015.23
2022-08-26T06:58:22.738Z,1015.26
2022-08-26T06:59:22.736Z,1015.23
2022-08-26T07:00:22.726Z,1015.21
2022-08-26T07:01:22.825Z,1015.18
2022-08-26T07:02:22.810Z,1015.22
2022-08-26T07:03:22.741Z,1015.16
2022-08-26T07:04:23.291Z,1015.15
2022-08-26T07:05:22.735Z,1015.13
2022-08-26T07:06:22.729Z,1015.15
2022-08-26T07:07:22.747Z,1015.17
2022-08-26T07:08:22.749Z,1015.17
2022-08-26T07:09:22.735Z,1015.18
2022-08-26T07:10:22.769Z,1015.21
2022-08-26T07:11:22.726Z,1015.17
2022-08-26T07:12:22.746Z,1015.2
2022-08-26T07:13:30.719Z,1015.19
2022-08-26T07:14:22.737Z,1015.2
2022-08-26T07:15:24.013Z,1015.2
2022-08-26T07:16:22.779Z,1015.15
2022-08-26T07:17:24.987Z,1015.16
2022-08-26T07:18:22.714Z,1015.18
2022-08-26T07:19:30.985Z,1015.13
2022-08-26T07:20:22.744Z,1015.15
2022-08-26T07:21:22.738Z,1015.15
2022-08-26T07:22:22.738Z,1015.14
2022-08-26T07:23:22.731Z,1015.09
2022-08-26T07:24:22.717Z,1015.14
2022-08-26T07:25:22.721Z,1015.15
2022-08-26T07:26:22.713Z,1015.18
2022-08-26T07:27:22.727Z,1015.16
2022-08-26T07:28:22.708Z,1015.17
2022-08-26T07:29:22.716Z,1015.14
2022-08-26T07:30:22.751Z,1015.15
2022-08-26T07:31:22.835Z,1015.13
2022-08-26T07:32:22.949Z,1015.13
2022-08-26T07:33:22.730Z,1015.14
2022-08-26T07:34:22.729Z,1015.16
2022-08-26T07:35:22.722Z,1015.13
2022-08-26T07:36:22.736Z,1015.1
2022-08-26T07:37:22.748Z,1015.07
2022-08-26T07:38:22.752Z,1015.04
2022-08-26T07:39:22.736Z,1015.06
2022-08-26T07:40:22.858Z,1015
2022-08-26T07:41:22.930Z,1015.06
2022-08-26T07:42:22.746Z,1015.01
2022-08-26T07:43:22.726Z,1015.02
2022-08-26T07:44:22.730Z,1015.05
2022-08-26T07:45:22.761Z,1015.03
2022-08-26T07:46:27.417Z,1015.03
2022-08-26T07:47:25.851Z,1015.03
2022-08-26T07:48:22.721Z,1015.01
2022-08-26T07:49:22.906Z,1015.01
2022-08-26T07:50:22.713Z,1014.98
2022-08-26T07:51:22.723Z,1014.98
2022-08-26T07:52:26.200Z,1014.94
2022-08-26T07:53:24.150Z,1014.97
2022-08-26T07:54:26.687Z,1014.96
2022-08-26T07:55:22.717Z,1014.93
2022-08-26T07:56:22.737Z,1014.94
2022-08-26T07:57:24.275Z,1014.94
2022-08-26T07:58:22.728Z,1014.94
2022-08-26T07:59:22.735Z,1014.94
2022-08-26T08:00:22.709Z,1014.9
2022-08-26T08:01:22.796Z,1014.89
2022-08-26T08:02:22.752Z,1014.89
2022-08-26T08:03:22.735Z,1014.91
2022-08-26T08:04:26.436Z,1014.9
2022-08-26T08:05:22.815Z,1014.89
2022-08-26T08:06:22.732Z,1014.9
2022-08-26T08:07:25.784Z,1014.92
2022-08-26T08:08:27.539Z,1014.92
2022-08-26T08:09:22.736Z,1014.92
2022-08-26T08:10:22.709Z,1014.89
2022-08-26T08:11:22.733Z,1014.89
2022-08-26T08:12:22.741Z,1014.89
2022-08-26T08:13:22.734Z,1014.91
2022-08-26T08:14:22.725Z,1014.91
2022-08-26T08:15:22.729Z,1014.91
2022-08-26T08:16:22.766Z,1014.88
2022-08-26T08:17:22.798Z,1014.88
2022-08-26T08:18:22.727Z,1014.88
2022-08-26T08:19:22.736Z,1014.87
2022-08-26T08:20:23.074Z,1014.9
2022-08-26T08:21:23.634Z,1014.85
2022-08-26T08:22:22.743Z,1014.81
2022-08-26T08:23:22.733Z,1014.77
2022-08-26T08:24:22.729Z,1014.78
2022-08-26T08:25:22.710Z,1014.8
2022-08-26T08:26:22.733Z,1014.78
2022-08-26T08:27:24.119Z,1014.77
2022-08-26T08:28:22.736Z,1014.76
2022-08-26T08:29:22.734Z,1014.73
2022-08-26T08:30:23.212Z,1014.72
2022-08-26T08:31:45.362Z,1014.73
2022-08-26T08:32:22.768Z,1014.75
2022-08-26T08:33:22.712Z,1014.68
2022-08-26T08:34:22.732Z,1014.68
2022-08-26T08:35:22.755Z,1014.65
2022-08-26T08:36:22.726Z,1014.64
2022-08-26T08:37:22.759Z,1014.67
2022-08-26T08:38:22.781Z,1014.62
2022-08-26T08:39:22.718Z,1014.61
2022-08-26T08:40:22.791Z,1014.61
2022-08-26T08:41:22.721Z,1014.57
2022-08-26T08:42:23.633Z,1014.59
2022-08-26T08:43:22.725Z,1014.59
2022-08-26T08:45:22.732Z,1014.53
2022-08-26T08:46:22.764Z,1014.53
2022-08-26T08:47:22.783Z,1014.51
2022-08-26T08:48:27.875Z,1014.51
2022-08-26T08:49:22.730Z,1014.5
2022-08-26T08:50:22.722Z,1014.53
2022-08-26T08:51:22.740Z,1014.5
2022-08-26T08:52:22.783Z,1014.49
2022-08-26T08:53:22.776Z,1014.49
2022-08-26T08:54:22.740Z,1014.47
2022-08-26T08:55:22.742Z,1014.43
2022-08-26T08:56:22.742Z,1014.44
2022-08-26T08:57:22.786Z,1014.42
2022-08-26T08:58:22.737Z,1014.42
2022-08-26T08:59:22.741Z,1014.45
2022-08-26T09:00:30.444Z,1014.41
2022-08-26T09:01:22.766Z,1014.39
2022-08-26T09:02:22.861Z,1014.37
2022-08-26T09:03:22.734Z,1014.37
2022-08-26T09:04:22.743Z,1014.37
2022-08-26T09:05:22.725Z,1014.36
2022-08-26T09:06:22.732Z,1014.35
2022-08-26T09:07:22.793Z,1014.34
2022-08-26T09:08:22.794Z,1014.34
2022-08-26T09:09:22.728Z,1014.34
2022-08-26T09:10:22.724Z,1014.32
2022-08-26T09:11:22.744Z,1014.28
2022-08-26T09:12:29.516Z,1014.31
2022-08-26T09:13:26.142Z,1014.35
2022-08-26T09:14:22.738Z,1014.32
2022-08-26T09:15:23.962Z,1014.32
2022-08-26T09:16:22.786Z,1014.27
2022-08-26T09:17:22.777Z,1014.25
2022-08-26T09:18:22.767Z,1014.27
2022-08-26T09:19:22.734Z,1014.25
2022-08-26T09:20:22.719Z,1014.26
2022-08-26T09:21:22.726Z,1014.22
2022-08-26T09:23:22.777Z,1014.2
2022-08-26T09:24:22.734Z,1014.19
2022-08-26T09:25:22.735Z,1014.19
2022-08-26T09:26:25.871Z,1014.14
2022-08-26T09:27:22.776Z,1014.13
2022-08-26T09:28:22.736Z,1014.17
2022-08-26T09:29:22.745Z,1014.12
2022-08-26T09:30:22.730Z,1014.09
2022-08-26T09:31:23.661Z,1014.05
2022-08-26T09:32:22.770Z,1014.09
2022-08-26T09:33:22.730Z,1014.07
2022-08-26T09:34:22.734Z,1014.05
2022-08-26T09:35:22.714Z,1014.07
2022-08-26T09:36:45.092Z,1014.03
2022-08-26T09:38:44.060Z,1014.01
2022-08-26T09:39:44.026Z,1014
2022-08-26T09:40:44.080Z,1014
2022-08-26T09:41:44.000Z,1014.02
2022-08-26T09:42:44.130Z,1013.99
2022-08-26T09:43:44.007Z,1013.97
2022-08-26T09:44:44.002Z,1013.98
2022-08-26T09:45:49.344Z,1013.97
2022-08-26T09:46:44.011Z,1013.94
2022-08-26T09:47:44.054Z,1013.91
2022-08-26T09:48:43.995Z,1013.91
2022-08-26T09:49:44.003Z,1013.89
2022-08-26T09:50:44.002Z,1013.93
2022-08-26T09:51:44.003Z,1013.9
2022-08-26T09:52:44.048Z,1013.91
2022-08-26T09:53:44.046Z,1013.91
2022-08-26T09:54:43.991Z,1013.94
2022-08-26T09:55:44.064Z,1013.95
2022-08-26T09:56:43.995Z,1013.92
2022-08-26T09:57:44.042Z,1013.93
2022-08-26T09:58:43.984Z,1013.94
2022-08-26T09:59:44.027Z,1013.96
2022-08-26T10:00:43.993Z,1013.94
2022-08-26T10:01:44.809Z,1013.96
2022-08-26T10:02:47.857Z,1013.87
2022-08-26T10:03:44.068Z,1013.82
2022-08-26T10:04:44.038Z,1013.84
2022-08-26T10:05:44.006Z,1013.81
2022-08-26T10:06:44.003Z,1013.78
2022-08-26T10:07:44.009Z,1013.78
2022-08-26T10:08:44.189Z,1013.73
2022-08-26T10:09:43.990Z,1013.73
2022-08-26T10:10:45.077Z,1013.72
2022-08-26T10:11:44.001Z,1013.73
2022-08-26T10:12:44.011Z,1013.74
2022-08-26T10:13:44.012Z,1013.74
2022-08-26T10:15:50.066Z,1013.74
2022-08-26T10:16:44.062Z,1013.71
2022-08-26T10:17:44.011Z,1013.77
2022-08-26T10:18:44.008Z,1013.71
2022-08-26T10:19:57.148Z,1013.7
2022-08-26T10:20:44.003Z,1013.69
2022-08-26T10:21:44.024Z,1013.66
2022-08-26T10:22:44.018Z,1013.64
2022-08-26T10:23:44.928Z,1013.62
2022-08-26T10:24:44.002Z,1013.6
2022-08-26T10:25:44.004Z,1013.61
2022-08-26T10:26:44.026Z,1013.55
2022-08-26T10:27:51.190Z,1013.55
2022-08-26T10:28:44.377Z,1013.56
2022-08-26T10:29:44.106Z,1013.56
2022-08-26T10:30:44.011Z,1013.55
2022-08-26T10:31:44.023Z,1013.5
2022-08-26T10:32:44.031Z,1013.47
2022-08-26T10:33:44.005Z,1013.32
2022-08-26T10:34:43.995Z,1013.2
2022-08-26T10:35:43.997Z,1013.14
2022-08-26T10:37:13.412Z,1013.16
2022-08-26T10:37:44.015Z,1013.11
2022-08-26T10:38:44.325Z,1013.17
2022-08-26T10:39:43.990Z,1013.18
2022-08-26T10:40:44.055Z,1013.15
2022-08-26T10:41:44.063Z,1013.15
2022-08-26T10:42:44.024Z,1013.16
2022-08-26T10:43:44.021Z,1013.18
2022-08-26T10:44:44.006Z,1013.21
2022-08-26T10:45:44.035Z,1013.18
2022-08-26T10:46:44.006Z,1013.2
2022-08-26T10:47:44.017Z,1013.24
2022-08-26T10:48:44.004Z,1013.2
2022-08-26T10:49:44.005Z,1013.18
2022-08-26T10:50:44.003Z,1013.13
2022-08-26T10:51:45.743Z,1013
2022-08-26T10:52:44.019Z,1012.94
2022-08-26T10:53:44.434Z,1012.85
2022-08-26T10:54:44.016Z,1012.85
2022-08-26T10:55:44.035Z,1012.79
2022-08-26T10:56:44.032Z,1012.72
2022-08-26T10:57:44.026Z,1012.67
2022-08-26T10:58:44.561Z,1012.65
2022-08-26T10:59:44.050Z,1012.63
2022-08-26T11:00:44.191Z,1012.57
2022-08-26T11:01:44.091Z,1012.56
2022-08-26T11:02:47.143Z,1012.57
2022-08-26T11:03:44.039Z,1012.55
2022-08-26T11:04:48.164Z,1012.62
2022-08-26T11:05:44.002Z,1012.6
2022-08-26T11:06:44.024Z,1012.56
2022-08-26T11:07:44.029Z,1012.56
2022-08-26T11:08:44.016Z,1012.47
2022-08-26T11:09:44.000Z,1012.52
2022-08-26T11:10:44.000Z,1012.51
2022-08-26T11:11:44.011Z,1012.5
2022-08-26T11:12:44.021Z,1012.46
2022-08-26T11:13:43.996Z,1012.45
2022-08-26T11:14:53.690Z,1012.47
2022-08-26T11:15:44.001Z,1012.47
2022-08-26T11:16:44.059Z,1012.47
2022-08-26T11:17:44.022Z,1012.42
2022-08-26T11:18:44.003Z,1012.48
2022-08-26T11:20:00.271Z,1012.43
2022-08-26T11:20:44.003Z,1012.44
2022-08-26T11:22:31.743Z,1012.41
2022-08-26T11:23:30.802Z,1012.46
2022-08-26T11:24:30.819Z,1012.44
2022-08-26T11:25:31.192Z,1012.37
2022-08-26T11:26:43.246Z,1012.4
2022-08-26T11:27:30.766Z,1012.41
2022-08-26T11:28:30.781Z,1012.39
2022-08-26T11:29:30.784Z,1012.31
2022-08-26T11:30:30.759Z,1012.31
2022-08-26T11:31:30.791Z,1012.28
2022-08-26T11:32:30.795Z,1012.26
2022-08-26T11:33:30.791Z,1012.28
2022-08-26T11:34:30.778Z,1012.24
2022-08-26T11:35:30.774Z,1012.24
2022-08-26T11:36:30.772Z,1012.29
2022-08-26T11:37:30.880Z,1012.31
2022-08-26T11:39:36.686Z,1012.37
2022-08-26T11:40:34.414Z,1012.34
2022-08-26T11:42:38.222Z,1012.28
2022-08-26T11:43:37.275Z,1012.26
2022-08-26T11:44:37.257Z,1012.23
2022-08-26T11:45:37.393Z,1012.18
2022-08-26T11:47:35.261Z,1012.21
2022-08-26T11:48:34.351Z,1012.25
2022-08-26T11:49:34.326Z,1012.2
2022-08-26T11:50:34.324Z,1012.22
2022-08-26T11:51:38.202Z,1012.22
2022-08-26T11:52:34.314Z,1012.16
2022-08-26T11:53:34.327Z,1012.17
2022-08-26T11:54:35.659Z,1012.17
2022-08-26T11:55:34.318Z,1012.17
2022-08-26T11:56:34.317Z,1012.17
2022-08-26T11:57:34.309Z,1012.17
2022-08-26T11:58:34.333Z,1012.2
2022-08-26T12:00:34.507Z,1012.19
2022-08-26T12:01:34.307Z,1012.14
2022-08-26T12:02:34.309Z,1012.16
2022-08-26T12:03:34.408Z,1012.16
2022-08-26T12:04:34.470Z,1012.15
2022-08-26T12:05:34.308Z,1012.13
2022-08-26T12:06:36.361Z,1012.16
2022-08-26T12:07:34.352Z,1012.16
2022-08-26T12:08:34.325Z,1012.11
2022-08-26T12:09:34.323Z,1012.11
2022-08-26T12:10:34.352Z,1012.07
2022-08-26T12:11:34.302Z,1012.03
2022-08-26T12:12:35.171Z,1012.02
2022-08-26T12:13:34.333Z,1012
2022-08-26T12:14:34.319Z,1011.93
2022-08-26T12:15:34.314Z,1011.93
2022-08-26T12:16:34.316Z,1011.97
2022-08-26T12:17:34.310Z,1011.94
2022-08-26T12:18:34.323Z,1011.94
2022-08-26T12:19:34.306Z,1011.96
2022-08-26T12:20:34.323Z,1011.96
2022-08-26T12:21:34.638Z,1011.96
2022-08-26T12:22:34.309Z,1011.92
2022-08-26T12:23:34.333Z,1011.94
2022-08-26T12:24:34.336Z,1011.96
2022-08-26T12:25:36.284Z,1011.96
2022-08-26T12:26:34.299Z,1011.96
2022-08-26T12:27:34.359Z,1012.05
2022-08-26T12:28:34.320Z,1012.07
2022-08-26T12:29:34.301Z,1012.02
2022-08-26T12:30:34.304Z,1011.95
2022-08-26T12:31:34.371Z,1011.91
2022-08-26T12:32:34.298Z,1011.79
2022-08-26T12:33:34.315Z,1011.79
2022-08-26T12:34:34.305Z,1011.77
2022-08-26T12:35:34.348Z,1011.73
2022-08-26T12:36:34.303Z,1011.63
2022-08-26T12:37:34.299Z,1011.59
2022-08-26T12:38:34.334Z,1011.59
2022-08-26T12:39:34.315Z,1011.55
2022-08-26T12:40:34.407Z,1011.53
2022-08-26T12:41:34.304Z,1011.51
2022-08-26T12:42:34.304Z,1011.45
2022-08-26T12:43:34.317Z,1011.46
2022-08-26T12:44:34.297Z,1011.46
2022-08-26T12:45:34.339Z,1011.45
2022-08-26T12:46:34.301Z,1011.45
2022-08-26T12:47:42.725Z,1011.43
2022-08-26T12:48:34.317Z,1011.45
2022-08-26T12:49:34.324Z,1011.53
2022-08-26T12:50:34.304Z,1011.51
2022-08-26T12:51:34.299Z,1011.51
2022-08-26T12:52:34.317Z,1011.53
2022-08-26T12:53:34.326Z,1011.56
2022-08-26T12:54:34.320Z,1011.55
2022-08-26T12:55:34.290Z,1011.56
2022-08-26T12:56:34.291Z,1011.59
2022-08-26T12:57:34.300Z,1011.61
2022-08-26T12:58:34.319Z,1011.59
2022-08-26T12:59:34.296Z,1011.55
2022-08-26T13:00:34.360Z,1011.55
2022-08-26T13:01:34.378Z,1011.48
2022-08-26T13:02:34.291Z,1011.43
2022-08-26T13:03:34.310Z,1011.39
2022-08-26T13:04:34.309Z,1011.41
2022-08-26T13:05:34.302Z,1011.39
2022-08-26T13:06:34.336Z,1011.39
2022-08-26T13:07:34.299Z,1011.39
2022-08-26T13:08:34.311Z,1011.41
2022-08-26T13:09:34.323Z,1011.39
2022-08-26T13:10:34.301Z,1011.37
2022-08-26T13:11:34.298Z,1011.42
2022-08-26T13:12:34.299Z,1011.47
2022-08-26T13:13:34.313Z,1011.45
2022-08-26T13:14:34.303Z,1011.4
2022-08-26T13:15:34.312Z,1011.5
2022-08-26T13:16:34.346Z,1011.46
2022-08-26T13:17:34.310Z,1011.44
2022-08-26T13:18:34.336Z,1011.46
2022-08-26T13:19:34.301Z,1011.43
2022-08-26T13:20:34.293Z,1011.4
2022-08-26T13:21:37.475Z,1011.38
2022-08-26T13:22:34.385Z,1011.37
2022-08-26T13:23:34.307Z,1011.34
2022-08-26T13:24:34.325Z,1011.36
2022-08-26T13:25:34.321Z,1011.38
2022-08-26T13:26:34.303Z,1011.37
2022-08-26T13:27:34.297Z,1011.36
2022-08-26T13:28:34.323Z,1011.35
2022-08-26T13:29:34.298Z,1011.32
2022-08-26T13:30:34.299Z,1011.32
2022-08-26T13:31:34.344Z,1011.36
2022-08-26T13:32:34.303Z,1011.34
2022-08-26T13:33:34.312Z,1011.31
2022-08-26T13:34:34.294Z,1011.3
2022-08-26T13:35:34.301Z,1011.35
2022-08-26T13:36:34.303Z,1011.35
2022-08-26T13:37:35.463Z,1011.34
2022-08-26T13:38:34.309Z,1011.34
2022-08-26T13:39:34.322Z,1011.32
2022-08-26T13:40:34.730Z,1011.27
2022-08-26T13:41:34.293Z,1011.3
2022-08-26T13:42:34.379Z,1011.29
2022-08-26T13:43:34.309Z,1011.27
2022-08-26T13:44:34.294Z,1011.29
2022-08-26T13:45:34.293Z,1011.26
2022-08-26T13:46:34.410Z,1011.22
2022-08-26T13:47:34.305Z,1011.16
2022-08-26T13:48:34.308Z,1011.19
2022-08-26T13:49:34.301Z,1011.18
2022-08-26T13:50:34.296Z,1011.22
2022-08-26T13:51:34.314Z,1011.25
2022-08-26T13:52:34.295Z,1011.26
2022-08-26T13:53:34.329Z,1011.28
2022-08-26T13:54:34.318Z,1011.27
2022-08-26T13:55:34.296Z,1011.27
2022-08-26T13:56:34.292Z,1011.29
2022-08-26T13:57:34.297Z,1011.29
2022-08-26T13:58:34.308Z,1011.27
2022-08-26T13:59:34.289Z,1011.27
2022-08-26T14:00:34.333Z,1011.29
2022-08-26T14:01:34.295Z,1011.36
2022-08-26T14:02:34.292Z,1011.36
2022-08-26T14:03:34.384Z,1011.4
2022-08-26T14:04:34.303Z,1011.46
2022-08-26T14:05:34.295Z,1011.47
2022-08-26T14:06:34.300Z,1011.47
2022-08-26T14:07:34.293Z,1011.39
2022-08-26T14:08:34.318Z,1011.4
2022-08-26T14:09:38.228Z,1011.36
2022-08-26T14:10:34.369Z,1011.36
2022-08-26T14:11:50.637Z,1011.39
2022-08-26T14:12:34.295Z,1011.44
2022-08-26T14:13:34.302Z,1011.42
2022-08-26T14:14:34.293Z,1011.42
2022-08-26T14:15:34.294Z,1011.44
2022-08-26T14:16:34.362Z,1011.43
2022-08-26T14:17:34.287Z,1011.45
2022-08-26T14:18:38.377Z,1011.49
2022-08-26T14:19:34.302Z,1011.5
2022-08-26T14:20:34.299Z,1011.52
2022-08-26T14:21:34.291Z,1011.51
2022-08-26T14:22:34.299Z,1011.48
2022-08-26T14:23:34.315Z,1011.5
2022-08-26T14:24:34.314Z,1011.43
2022-08-26T14:25:34.293Z,1011.4
2022-08-26T14:26:34.292Z,1011.4
2022-08-26T14:27:34.306Z,1011.44
2022-08-26T14:28:34.313Z,1011.43
2022-08-26T14:29:34.289Z,1011.45
2022-08-26T14:30:34.307Z,1011.48
2022-08-26T14:31:34.341Z,1011.51
2022-08-26T14:32:34.303Z,1011.57
2022-08-26T14:33:34.307Z,1011.54
2022-08-26T14:34:34.325Z,1011.54
2022-08-26T14:35:34.296Z,1011.5
2022-08-26T14:36:34.295Z,1011.46
2022-08-26T14:37:34.305Z,1011.45
2022-08-26T14:38:34.318Z,1011.39
2022-08-26T14:39:34.313Z,1011.32
2022-08-26T14:40:37.851Z,1011.28
2022-08-26T14:41:34.296Z,1011.25
2022-08-26T14:42:34.295Z,1011.25
2022-08-26T14:43:34.311Z,1011.23
2022-08-26T14:44:34.306Z,1011.17
2022-08-26T14:45:34.341Z,1011.18
2022-08-26T14:46:34.359Z,1011.19
2022-08-26T14:47:34.304Z,1011.16
2022-08-26T14:48:34.314Z,1011.12
2022-08-26T14:49:34.293Z,1011.01